Fedora — SLKU — position and weather

sailwx.info

Track history (hours):
 
Tides and Currents Weather Stations Pressure Air Temp Water Temp Dewpoint Dewpoint Depression Visibility Wind Speed Wind Dir Waves Ship Positions

Fedora

Last reported at 2017-Jun-23 18:22 UTC. Time now 2017-Jun-27 03:35 UTC.
Position S 26°05' E 153°27'.

Length 228 m; draft 7.8 m.

Type: Cargo ship. MMSI: 266259000.

Date/timePositionNaut miles runAvg speedWind from/ knotsBaromVisibWave heightAir tempDewpointWater temp
2017-Jun-23 18:22S 26°05' E 153°27'514.0
2017-Jun-23 18:00S 26°10' E 153°25'714.0
2017-Jun-23 17:30S 26°17' E 153°23'1214.1
2017-Jun-23 16:39S 26°28' E 153°19'314.1
2017-Jun-23 16:26S 26°31' E 153°18'614.0
2017-Jun-23 16:00S 26°37' E 153°15'612.9
2017-Jun-23 15:30S 26°42' E 153°12'611.9
2017-Jun-23 15:00S 26°48' E 153°11'1615.7
2017-Jun-23 14:00S 27°03' E 153°17'816.5
2017-Jun-23 13:30S 27°11' E 153°21'815.4
2017-Jun-23 13:00S 27°17' E 153°15'612.0
2017-Jun-23 12:30S 27°21' E 153°11'2 3.2
2017-Jun-23 12:00S 27°23' E 153°10'0 0.0
2017-Jun-23 11:30S 27°23' E 153°10'0 0.0
2017-Jun-23 10:57S 27°23' E 153°10'0 0.0
2017-Jun-23 10:30S 27°23' E 153°10'0 0.0
2017-Jun-23 10:00S 27°23' E 153°10'0 0.0
2017-Jun-23 09:30S 27°23' E 153°10'0 0.0
2017-Jun-23 09:00S 27°23' E 153°10'0 0.0
2017-Jun-23 08:30S 27°23' E 153°10'0 0.0
2017-Jun-23 08:00S 27°23' E 153°10'0 0.0
2017-Jun-23 07:30S 27°23' E 153°10'0 0.0
2017-Jun-23 07:00S 27°23' E 153°10'0 0.0
2017-Jun-23 06:30S 27°23' E 153°10'0 0.0
2017-Jun-23 06:00S 27°23' E 153°10'0 0.0
2017-Jun-23 00:57S 27°23' E 153°10'0 0.0
2017-Jun-23 00:30S 27°23' E 153°10'0 0.0
2017-Jun-23 00:00S 27°23' E 153°10'0 0.1
2017-Jun-22 23:31S 27°23' E 153°10'4 8.7
2017-Jun-22 23:01S 27°19' E 153°12'510.2
2017-Jun-22 22:30S 27°16' E 153°17'612.8
2017-Jun-22 22:01S 27°10' E 153°21'714.8
2017-Jun-22 21:30S 27°03' E 153°18'816.1
2017-Jun-22 21:00S 26°57' E 153°13'816.0
2017-Jun-22 20:31S 26°49' E 153°09'612.7
2017-Jun-22 20:00S 26°43' E 153°10'1611.3
2017-Jun-22 18:37S 26°50' E 153°26'1713.0
2017-Jun-22 17:20S 27°03' E 153°37'1113.1
2017-Jun-22 16:28S 27°14' E 153°42'32114.3
2017-Jun-21 18:00S 32°32' E 152°55'714.9
2017-Jun-21 17:30S 32°38' E 152°50'714.8
2017-Jun-21 17:00S 32°44' E 152°45'1115.3
2017-Jun-21 16:19S 32°53' E 152°37'615.5
2017-Jun-21 15:55S 32°58' E 152°33'915.0
2017-Jun-21 15:21S 33°05' E 152°27'514.8
2017-Jun-21 14:59S 33°09' E 152°23'  
2017-Jun-19 03:17S 39°08' E 147°01'412.7
2017-Jun-19 02:59S 39°09' E 146°57'612.6
2017-Jun-19 02:30S 39°11' E 146°49'712.7
2017-Jun-19 01:58S 39°14' E 146°41'613.9
2017-Jun-19 01:30S 39°16' E 146°33'1916.6
2017-Jun-19 00:22S 39°14' E 146°09'1517.4
2017-Jun-18 23:31S 39°06' E 145°53'917.5
2017-Jun-18 23:02S 39°01' E 145°43'015.1
2017-Jun-18 23:00S 39°01' E 145°43'6711.5
2017-Jun-18 17:10S 38°06' E 144°55'317.5
2017-Jun-18 17:00S 38°03' E 144°55'1015.1
2017-Jun-18 16:20S 37°53' E 144°56'2 4.9
2017-Jun-18 15:50S 37°50' E 144°54'0 0.0
2017-Jun-18 14:35S 37°50' E 144°54'0 0.0
2017-Jun-18 14:14S 37°50' E 144°54'0 0.0
2017-Jun-18 12:08S 37°50' E 144°54'0 0.0
2017-Jun-18 10:08S 37°50' E 144°54'0 0.0
2017-Jun-18 09:53S 37°50' E 144°54'0 0.0
2017-Jun-18 05:23S 37°50' E 144°54'0 0.0
2017-Jun-18 03:08S 37°50' E 144°54'0 0.0
2017-Jun-18 02:47S 37°50' E 144°54'0 0.0
2017-Jun-18 02:17S 37°50' E 144°54'0 0.0
2017-Jun-18 01:58S 37°50' E 144°54'1 1.3
2017-Jun-18 01:28S 37°51' E 144°55'3 6.3
2017-Jun-18 01:00S 37°54' E 144°56'713.7
2017-Jun-18 00:30S 38°01' E 144°55'  
Track history (hours):
 
Tides and Currents Weather Stations Pressure Air Temp Water Temp Dewpoint Dewpoint Depression Visibility Wind Speed Wind Dir Waves Ship Positions

Fedora

Last reported at 2017-Jun-23 18:22 UTC. Time now 2017-Jun-27 03:35 UTC.
Position S 26°05' E 153°27'.

Length 228 m; draft 7.8 m.

Type: Cargo ship. MMSI: 266259000.

Date/timePositionNaut miles runAvg speedWind from/ knotsBaromVisibWave heightAir tempDewpointWater temp
2017-Jun-23 18:22S 26°05' E 153°27'514.0
2017-Jun-23 18:00S 26°10' E 153°25'714.0
2017-Jun-23 17:30S 26°17' E 153°23'1214.1
2017-Jun-23 16:39S 26°28' E 153°19'314.1
2017-Jun-23 16:26S 26°31' E 153°18'614.0
2017-Jun-23 16:00S 26°37' E 153°15'612.9
2017-Jun-23 15:30S 26°42' E 153°12'611.9
2017-Jun-23 15:00S 26°48' E 153°11'1615.7
2017-Jun-23 14:00S 27°03' E 153°17'816.5
2017-Jun-23 13:30S 27°11' E 153°21'815.4
2017-Jun-23 13:00S 27°17' E 153°15'612.0
2017-Jun-23 12:30S 27°21' E 153°11'2 3.2
2017-Jun-23 12:00S 27°23' E 153°10'0 0.0
2017-Jun-23 11:30S 27°23' E 153°10'0 0.0
2017-Jun-23 10:57S 27°23' E 153°10'0 0.0
2017-Jun-23 10:30S 27°23' E 153°10'0 0.0
2017-Jun-23 10:00S 27°23' E 153°10'0 0.0
2017-Jun-23 09:30S 27°23' E 153°10'0 0.0
2017-Jun-23 09:00S 27°23' E 153°10'0 0.0
2017-Jun-23 08:30S 27°23' E 153°10'0 0.0
2017-Jun-23 08:00S 27°23' E 153°10'0 0.0
2017-Jun-23 07:30S 27°23' E 153°10'0 0.0
2017-Jun-23 07:00S 27°23' E 153°10'0 0.0
2017-Jun-23 06:30S 27°23' E 153°10'0 0.0
2017-Jun-23 06:00S 27°23' E 153°10'0 0.0
2017-Jun-23 00:57S 27°23' E 153°10'0 0.0
2017-Jun-23 00:30S 27°23' E 153°10'0 0.0
2017-Jun-23 00:00S 27°23' E 153°10'0 0.1
2017-Jun-22 23:31S 27°23' E 153°10'4 8.7
2017-Jun-22 23:01S 27°19' E 153°12'510.2
2017-Jun-22 22:30S 27°16' E 153°17'612.8
2017-Jun-22 22:01S 27°10' E 153°21'714.8
2017-Jun-22 21:30S 27°03' E 153°18'816.1
2017-Jun-22 21:00S 26°57' E 153°13'816.0
2017-Jun-22 20:31S 26°49' E 153°09'612.7
2017-Jun-22 20:00S 26°43' E 153°10'1611.3
2017-Jun-22 18:37S 26°50' E 153°26'1713.0
2017-Jun-22 17:20S 27°03' E 153°37'1113.1
2017-Jun-22 16:28S 27°14' E 153°42'32114.3
2017-Jun-21 18:00S 32°32' E 152°55'714.9
2017-Jun-21 17:30S 32°38' E 152°50'714.8
2017-Jun-21 17:00S 32°44' E 152°45'1115.3
2017-Jun-21 16:19S 32°53' E 152°37'615.5
2017-Jun-21 15:55S 32°58' E 152°33'915.0
2017-Jun-21 15:21S 33°05' E 152°27'514.8
2017-Jun-21 14:59S 33°09' E 152°23'  
2017-Jun-19 03:17S 39°08' E 147°01'412.7
2017-Jun-19 02:59S 39°09' E 146°57'612.6
2017-Jun-19 02:30S 39°11' E 146°49'712.7
2017-Jun-19 01:58S 39°14' E 146°41'613.9
2017-Jun-19 01:30S 39°16' E 146°33'1916.6
2017-Jun-19 00:22S 39°14' E 146°09'1517.4
2017-Jun-18 23:31S 39°06' E 145°53'917.5
2017-Jun-18 23:02S 39°01' E 145°43'015.1
2017-Jun-18 23:00S 39°01' E 145°43'6711.5
2017-Jun-18 17:10S 38°06' E 144°55'317.5
2017-Jun-18 17:00S 38°03' E 144°55'1015.1
2017-Jun-18 16:20S 37°53' E 144°56'2 4.9
2017-Jun-18 15:50S 37°50' E 144°54'0 0.0
2017-Jun-18 14:35S 37°50' E 144°54'0 0.0
2017-Jun-18 14:14S 37°50' E 144°54'0 0.0
2017-Jun-18 12:08S 37°50' E 144°54'0 0.0
2017-Jun-18 10:08S 37°50' E 144°54'0 0.0
2017-Jun-18 09:53S 37°50' E 144°54'0 0.0
2017-Jun-18 05:23S 37°50' E 144°54'0 0.0
2017-Jun-18 03:08S 37°50' E 144°54'0 0.0
2017-Jun-18 02:47S 37°50' E 144°54'0 0.0
2017-Jun-18 02:17S 37°50' E 144°54'0 0.0
2017-Jun-18 01:58S 37°50' E 144°54'1 1.3
2017-Jun-18 01:28S 37°51' E 144°55'3 6.3
2017-Jun-18 01:00S 37°54' E 144°56'713.7
2017-Jun-18 00:30S 38°01' E 144°55'  

Dump ship's entire track history